Time;durP1;ratioP1;P1;durP2;ratioP2;P2;SDS_P1;SDS_P2;PMS_P1;PMS_P2;Temp;Humidity;BMP_temperature;BMP_pressure;BME280_temperature;BME280_humidity;BME280_pressure;Samples;Min_cycle;Max_cycle;Signal;HPM_P1;HPM_P2
2023/09/14 00:05:09;;;;;;;11.52;7.32;;;;;;;27.25;49.28;96735.94;5050943;28;20039;-28
2023/09/14 00:21:02;;;;;;;12.55;6.50;;;;;;;27.21;47.00;96735.47;5048791;28;20101;-28
2023/09/14 00:36:55;;;;;;;8.30;5.88;;;;;;;27.22;42.50;96731.41;5055217;28;20090;-28
2023/09/14 00:53:02;;;;;;;8.82;6.00;;;;;;;27.20;41.20;96734.72;5054176;28;20116;-28
2023/09/14 00:55:29;;;;;;;8.25;6.35;;;;;;;27.15;41.09;96738.38;5054949;28;20110;-28
2023/09/14 01:07:59;;;;;;;11.25;8.38;;;;;;;27.23;41.60;96727.34;5051632;28;20098;-28
2023/09/14 01:21:14;;;;;;;8.48;7.15;;;;;;;27.20;44.37;96720.81;5052517;28;20036;-28
2023/09/14 01:37:07;;;;;;;12.07;9.13;;;;;;;27.00;49.02;96721.41;5048504;28;20039;-28
2023/09/14 01:53:00;;;;;;;10.02;7.65;;;;;;;27.10;49.13;96706.53;5052133;28;20044;-28
2023/09/14 02:22:19;;;;;;;6.82;6.13;;;;;;;27.09;47.54;96699.47;5046126;28;20098;-28
2023/09/14 02:38:12;;;;;;;8.30;6.88;;;;;;;27.08;48.17;96705.56;5048063;28;20094;-28
2023/09/14 02:54:06;;;;;;;6.32;4.90;;;;;;;27.14;47.08;96700.69;5052225;28;20082;-28
2023/09/14 03:07:11;;;;;;;5.85;4.95;;;;;;;26.82;47.24;96690.28;5047352;28;20068;-28
2023/09/14 03:23:03;;;;;;;6.03;4.82;;;;;;;27.07;47.04;96681.81;5045149;28;20052;-28
2023/09/14 03:38:56;;;;;;;7.07;4.97;;;;;;;27.06;46.98;96666.41;5052214;28;20418;-28
2023/09/14 04:08:55;;;;;;;7.57;6.18;;;;;;;26.99;47.06;96669.78;5051868;28;20479;-28
2023/09/14 04:24:49;;;;;;;7.43;5.97;;;;;;;26.84;47.25;96673.03;5048258;28;20047;-28
2023/09/14 04:38:12;;;;;;;7.95;6.30;;;;;;;26.78;48.72;96662.00;5055327;28;20032;-28
2023/09/14 04:54:04;;;;;;;9.90;6.97;;;;;;;26.75;49.76;96684.56;5054504;28;20047;-28
2023/09/14 05:09:56;;;;;;;8.77;7.10;;;;;;;26.56;51.02;96684.59;5051172;28;20418;-28
2023/09/14 05:39:40;;;;;;;10.25;6.95;;;;;;;26.57;49.25;96700.00;5053386;28;20087;-28
2023/09/14 05:55:32;;;;;;;6.82;6.00;;;;;;;26.73;48.67;96704.56;5053989;28;20536;-28
2023/09/14 06:11:27;;;;;;;11.30;7.70;;;;;;;26.77;45.88;96713.34;5052700;28;20390;-28
2023/09/14 06:24:29;;;;;;;9.35;7.10;;;;;;;26.67;47.25;96726.16;5046828;28;20052;-28
2023/09/14 06:40:24;;;;;;;11.18;7.25;;;;;;;26.90;47.55;96750.88;5049415;28;20414;-28
2023/09/14 06:56:43;;;;;;;7.32;5.88;;;;;;;26.89;46.83;96722.28;5049447;28;20066;-28
2023/09/14 07:10:00;;;;;;;7.15;4.90;;;;;;;26.94;44.50;96731.88;5051467;28;20116;-28
2023/09/14 07:25:52;;;;;;;5.38;4.57;;;;;;;26.95;42.62;96761.97;5045336;28;20052;-28
2023/09/14 07:41:44;;;;;;;5.40;4.90;;;;;;;27.04;43.64;96774.72;5051930;28;20028;-28
2023/09/14 07:44:09;;;;;;;7.43;5.43;;;;;;;27.06;43.76;96774.97;5052012;28;20013;-27
2023/09/14 07:56:40;;;;;;;6.40;4.65;;;;;;;26.96;44.20;96780.13;5056294;28;20036;-28
2023/09/14 08:12:36;;;;;;;7.32;5.22;;;;;;;26.95;44.91;96787.00;5055435;28;20512;-28
2023/09/14 08:43:19;;;;;;;7.40;4.93;;;;;;;26.95;44.95;96791.84;5050538;28;20032;-27
2023/09/14 08:56:17;;;;;;;5.35;4.57;;;;;;;27.07;44.63;96799.50;5032683;28;20497;-27
2023/09/14 09:12:08;;;;;;;6.93;5.00;;;;;;;27.30;44.51;96805.47;5030308;28;20068;-28
2023/09/14 09:28:02;;;;;;;5.53;4.43;;;;;;;27.06;42.99;96802.81;5041513;28;20087;-27
2023/09/14 09:30:31;;;;;;;5.00;4.47;;;;;;;27.12;42.69;96806.25;5054023;28;20478;-27
2023/09/14 09:43:04;;;;;;;6.90;4.88;;;;;;;27.16;42.08;96812.25;5053947;28;20078;-28
2023/09/14 09:58:56;;;;;;;5.35;4.63;;;;;;;27.22;42.07;96801.78;5051681;28;20055;-27
2023/09/14 10:12:07;;;;;;;5.63;4.30;;;;;;;27.21;42.07;96800.28;5053485;28;20109;-27
2023/09/14 10:14:36;;;;;;;8.38;4.65;;;;;;;27.30;42.16;96799.91;5045523;28;20151;-27
2023/09/14 10:27:19;;;;;;;5.45;4.30;;;;;;;27.33;41.93;96784.91;5048541;28;20385;-27
2023/09/14 10:43:11;;;;;;;5.03;4.20;;;;;;;27.59;40.64;96755.66;5047380;28;20075;-27
2023/09/14 10:45:39;;;;;;;5.90;4.53;;;;;;;27.70;40.57;96742.28;5052647;28;20449;-27
2023/09/14 10:58:15;;;;;;;4.68;4.07;;;;;;;27.37;41.84;96738.00;5052308;28;20047;-28
2023/09/14 11:14:10;;;;;;;5.45;4.93;;;;;;;27.41;42.94;96735.66;5051846;28;20444;-28
2023/09/14 11:44:29;;;;;;;7.43;5.57;;;;;;;27.54;43.53;96743.31;5030167;28;20087;-28
2023/09/14 12:00:21;;;;;;;6.03;4.88;;;;;;;27.66;43.59;96725.13;5052049;28;20162;-27
2023/09/14 12:13:32;;;;;;;7.72;5.03;;;;;;;27.72;43.94;96723.00;5051990;28;20525;-28
2023/09/14 12:16:00;;;;;;;9.90;4.95;;;;;;;27.85;44.14;96714.63;5051554;28;20035;-28
2023/09/14 12:29:03;;;;;;;9.82;5.60;;;;;;;27.94;44.26;96721.84;5046120;28;20548;-28
2023/09/14 12:44:56;;;;;;;6.00;5.40;;;;;;;28.03;44.16;96701.88;5035180;28;20113;-27
2023/09/14 12:47:21;;;;;;;5.63;5.13;;;;;;;28.07;43.96;96696.72;5035193;28;20040;-27
2023/09/14 12:49:47;;;;;;;6.43;5.82;;;;;;;27.83;44.48;96685.78;5034688;28;20025;-27
2023/09/14 12:59:05;;;;;;;7.93;6.18;;;;;;;27.90;45.28;96682.38;5034353;28;20079;-27
2023/09/14 13:14:58;;;;;;;6.25;5.57;;;;;;;28.06;44.67;96663.81;5034666;28;20040;-28
2023/09/14 13:17:23;;;;;;;8.95;6.03;;;;;;;27.93;44.95;96664.59;5034195;28;20033;-28
2023/09/14 13:29:54;;;;;;;6.97;5.53;;;;;;;27.93;45.06;96652.69;5037328;28;20048;-28
2023/09/14 13:45:46;;;;;;;6.80;5.22;;;;;;;27.88;45.31;96635.53;5053484;28;20048;-27
2023/09/14 14:01:38;;;;;;;5.97;5.30;;;;;;;27.97;46.38;96628.00;5053682;28;20383;-27
2023/09/14 14:14:58;;;;;;;6.50;4.85;;;;;;;27.94;46.09;96615.91;5052920;28;20112;-28
2023/09/14 14:30:50;;;;;;;6.15;5.28;;;;;;;27.84;46.27;96600.91;5045737;28;20052;-28
2023/09/14 14:46:42;;;;;;;6.45;5.28;;;;;;;28.11;45.89;96591.19;5052441;28;20080;-28
2023/09/14 15:02:35;;;;;;;9.13;5.93;;;;;;;28.03;46.86;96595.94;5047599;28;20078;-28
2023/09/14 15:15:37;;;;;;;7.70;5.38;;;;;;;28.01;47.31;96589.41;5049564;28;20040;-28
2023/09/14 15:31:29;;;;;;;6.60;5.88;;;;;;;27.95;47.87;96578.38;5045074;28;20126;-28
2023/09/14 15:47:21;;;;;;;7.32;6.05;;;;;;;28.06;47.11;96578.16;5047458;28;20075;-27
2023/09/14 16:03:14;;;;;;;7.15;6.32;;;;;;;28.03;47.57;96595.19;5051808;28;20075;-27
2023/09/14 16:16:21;;;;;;;9.65;6.50;;;;;;;27.86;48.52;96601.13;5049905;28;20060;-27
2023/09/14 16:32:13;;;;;;;10.13;7.18;;;;;;;27.87;49.68;96631.25;5048763;28;20080;-27
2023/09/14 16:48:06;;;;;;;16.30;7.53;;;;;;;27.95;49.57;96628.53;5055041;28;20091;-28
2023/09/14 17:03:59;;;;;;;10.23;7.05;;;;;;;27.63;51.13;96641.88;5054279;28;20036;-28
2023/09/14 17:17:00;;;;;;;11.00;7.20;;;;;;;27.62;51.32;96626.44;5054768;28;20067;-28
2023/09/14 17:32:52;;;;;;;8.98;6.97;;;;;;;27.70;52.70;96641.97;5047863;28;20064;-28
2023/09/14 17:48:44;;;;;;;10.25;6.50;;;;;;;27.66;52.96;96657.50;5053228;28;20082;-28
2023/09/14 18:04:36;;;;;;;12.35;6.57;;;;;;;27.54;53.82;96662.53;5048505;28;20079;-28
2023/09/14 18:17:43;;;;;;;16.55;7.80;;;;;;;27.70;53.80;96655.13;5050519;28;20036;-28
2023/09/14 18:33:35;;;;;;;12.98;9.18;;;;;;;27.50;55.17;96634.22;5044787;28;20044;-28
2023/09/14 18:49:27;;;;;;;10.70;9.55;;;;;;;27.51;54.69;96658.00;5052645;28;20113;-28
2023/09/14 19:05:19;;;;;;;13.35;9.02;;;;;;;27.66;54.37;96718.81;5052290;28;20477;-28
2023/09/14 19:18:25;;;;;;;11.18;9.52;;;;;;;27.43;55.13;96713.63;5047413;28;20406;-28
2023/09/14 19:34:18;;;;;;;15.13;10.73;;;;;;;27.64;54.16;96705.41;5045297;28;20122;-28
2023/09/14 19:50:10;;;;;;;12.88;9.02;;;;;;;27.36;54.74;96711.44;5056244;28;20115;-28
2023/09/14 20:06:03;;;;;;;12.25;8.05;;;;;;;27.43;55.21;96696.16;5054959;28;20171;-28
2023/09/14 20:19:09;;;;;;;12.13;8.20;;;;;;;27.60;54.40;96693.06;5055533;28;20442;-28
2023/09/14 20:35:01;;;;;;;9.90;8.00;;;;;;;27.35;55.56;96684.88;5047960;28;20414;-28
2023/09/14 20:37:26;;;;;;;12.38;8.00;;;;;;;27.29;55.68;96689.81;5055007;28;20029;-28
2023/09/14 20:49:57;;;;;;;10.98;9.00;;;;;;;27.54;54.73;96676.44;5054455;28;20060;-28
2023/09/14 21:06:01;;;;;;;10.32;8.75;;;;;;;27.53;54.14;96706.34;5054954;28;20386;-28
2023/09/14 21:35:21;;;;;;;11.80;8.93;;;;;;;27.17;58.14;96714.28;5046476;28;20461;-28
2023/09/14 21:37:46;;;;;;;12.80;9.48;;;;;;;27.15;58.47;96699.41;5053769;28;20036;-28
2023/09/14 21:50:29;;;;;;;12.02;9.05;;;;;;;27.17;58.86;96694.81;5049910;28;20044;-28
2023/09/14 22:06:22;;;;;;;8.88;7.35;;;;;;;27.27;56.22;96678.44;5053509;28;20106;-28
2023/09/14 22:22:14;;;;;;;8.70;7.22;;;;;;;27.32;56.31;96685.19;5050708;28;20417;-28
2023/09/14 22:52:17;;;;;;;11.45;8.88;;;;;;;26.99;58.19;96706.72;6191936;22;1341203;-28
2023/09/14 23:08:10;;;;;;;11.88;7.60;;;;;;;27.01;58.25;96711.75;6133695;23;20020;-28
2023/09/14 23:21:18;;;;;;;12.57;7.97;;;;;;;26.87;57.87;96724.84;6134050;23;20096;-28
2023/09/14 23:37:12;;;;;;;12.88;7.15;;;;;;;26.79;56.78;96721.19;6133924;23;20013;-28
2023/09/14 23:53:06;;;;;;;9.05;5.45;;;;;;;26.65;53.88;96686.97;6127153;23;20408;-28
